createdAt,value
2023-04-22T00:04:05.001Z,8.53
2023-04-22T00:09:06.900Z,8.50
2023-04-22T00:14:08.416Z,8.48
2023-04-22T00:19:09.987Z,8.50
2023-04-22T00:24:11.502Z,8.49
2023-04-22T00:29:13.015Z,8.50
2023-04-22T00:34:14.535Z,8.48
2023-04-22T00:39:16.183Z,8.48
2023-04-22T00:44:18.558Z,8.53
2023-04-22T00:49:20.515Z,8.53
2023-04-22T00:54:21.977Z,8.52
2023-04-22T00:59:25.364Z,8.49
2023-04-22T01:04:26.953Z,8.48
2023-04-22T01:09:28.890Z,8.48
2023-04-22T01:14:30.501Z,8.48
2023-04-22T01:19:32.950Z,8.48
2023-04-22T01:24:34.774Z,8.50
2023-04-22T01:29:38.314Z,8.50
2023-04-22T01:34:40.243Z,8.50
2023-04-22T01:39:41.962Z,8.46
2023-04-22T01:44:43.648Z,8.50
2023-04-22T01:49:45.298Z,8.53
2023-04-22T01:54:48.396Z,8.53
2023-04-22T01:59:49.926Z,8.53
2023-04-22T02:04:51.583Z,8.53
2023-04-22T02:09:53.385Z,8.50
2023-04-22T02:14:54.853Z,8.45
2023-04-22T02:19:56.442Z,8.42
2023-04-22T02:24:58.219Z,8.37
2023-04-22T02:29:59.710Z,8.34
2023-04-22T02:35:02.017Z,8.33
2023-04-22T02:40:04.365Z,8.27
2023-04-22T02:45:06.504Z,8.22
2023-04-22T02:50:08.389Z,8.25
2023-04-22T02:55:10.082Z,8.24
2023-04-22T03:00:11.846Z,8.20
2023-04-22T03:05:13.385Z,8.15
2023-04-22T03:10:15.155Z,8.12
2023-04-22T03:15:19.614Z,8.09
2023-04-22T03:20:22.775Z,8.06
2023-04-22T03:25:25.395Z,8.02
2023-04-22T03:30:26.970Z,8.01
2023-04-22T03:35:28.448Z,7.93
2023-04-22T03:40:29.913Z,7.93
2023-04-22T03:45:31.538Z,7.87
2023-04-22T03:50:33.499Z,7.83
2023-04-22T03:55:35.257Z,7.80
2023-04-22T04:00:36.828Z,7.79
2023-04-22T04:05:38.465Z,7.70
2023-04-22T04:10:40.102Z,7.64
2023-04-22T04:15:41.992Z,7.57
2023-04-22T04:20:43.485Z,7.50
2023-04-22T04:25:45.487Z,7.52
2023-04-22T04:30:47.132Z,7.50
2023-04-22T04:35:48.801Z,7.52
2023-04-22T04:40:50.884Z,7.46
2023-04-22T04:45:52.754Z,7.40
2023-04-22T04:50:54.372Z,7.37
2023-04-22T04:55:55.911Z,7.30
2023-04-22T05:00:57.379Z,7.28
2023-04-22T05:05:59.022Z,7.25
2023-04-22T05:11:00.526Z,7.21
2023-04-22T05:16:02.006Z,7.26
2023-04-22T05:21:04.302Z,7.39
2023-04-22T05:26:06.025Z,7.57
2023-04-22T05:31:07.553Z,7.79
2023-04-22T05:36:09.062Z,7.95
2023-04-22T05:41:10.546Z,8.10
2023-04-22T05:46:12.068Z,8.23
2023-04-22T05:51:13.689Z,8.38
2023-04-22T05:56:15.425Z,8.49
2023-04-22T06:01:17.050Z,8.63
2023-04-22T06:06:18.856Z,8.80
2023-04-22T06:11:20.638Z,8.92
2023-04-22T06:16:23.225Z,9.06
2023-04-22T06:21:24.823Z,9.17
2023-04-22T06:26:26.895Z,9.28
2023-04-22T06:31:28.474Z,9.37
2023-04-22T06:36:30.914Z,9.46
2023-04-22T06:41:35.231Z,9.47
2023-04-22T06:46:38.187Z,9.51
2023-04-22T06:51:39.753Z,9.57
2023-04-22T06:56:41.308Z,9.65
2023-04-22T07:01:42.893Z,9.73
2023-04-22T07:06:44.615Z,9.77
2023-04-22T07:11:46.374Z,9.86
2023-04-22T07:16:48.069Z,10.02
2023-04-22T07:21:49.783Z,10.18
2023-04-22T07:26:51.314Z,10.34
2023-04-22T07:31:53.021Z,10.45
2023-04-22T07:36:54.619Z,10.45
2023-04-22T07:41:57.716Z,10.41
2023-04-22T07:46:59.602Z,10.33
2023-04-22T07:52:01.191Z,10.35
2023-04-22T07:57:02.899Z,10.61
2023-04-22T08:02:04.525Z,10.88
2023-04-22T08:07:17.063Z,11.07
2023-04-22T08:12:27.807Z,11.32
2023-04-22T08:17:29.356Z,11.58
2023-04-22T08:22:32.079Z,11.77
2023-04-22T08:27:33.650Z,11.89
2023-04-22T08:32:35.323Z,12.27
2023-04-22T08:37:36.994Z,12.44
2023-04-22T08:42:38.619Z,12.71
2023-04-22T08:47:40.590Z,12.96
2023-04-22T08:52:43.540Z,12.25
2023-04-22T08:57:45.457Z,12.21
2023-04-22T09:02:48.318Z,12.17
2023-04-22T09:07:50.056Z,12.21
2023-04-22T09:12:52.032Z,12.41
2023-04-22T09:17:54.062Z,12.11
2023-04-22T09:22:57.452Z,11.82
2023-04-22T09:27:59.451Z,11.78
2023-04-22T09:33:04.237Z,12.05
2023-04-22T09:38:09.112Z,11.91
2023-04-22T09:43:11.558Z,12.36
2023-04-22T09:48:15.549Z,12.51
2023-04-22T09:53:19.625Z,12.44
2023-04-22T09:58:23.831Z,12.30
2023-04-22T10:03:25.857Z,12.55
2023-04-22T10:08:28.364Z,12.72
2023-04-22T10:13:29.881Z,13.30
2023-04-22T10:18:33.124Z,13.85
2023-04-22T10:23:34.702Z,14.00
2023-04-22T10:28:41.933Z,14.11
2023-04-22T10:33:43.458Z,14.15
2023-04-22T10:38:50.976Z,14.26
2023-04-22T10:44:00.405Z,14.38
2023-04-22T10:49:13.046Z,14.47
2023-04-22T10:54:31.858Z,14.41
2023-04-22T10:59:57.668Z,14.60
2023-04-22T11:05:19.384Z,14.65
2023-04-22T11:10:32.790Z,14.71
2023-04-22T11:15:37.436Z,14.64
2023-04-22T11:20:39.069Z,14.54
2023-04-22T11:25:40.763Z,14.54
2023-04-22T11:30:42.350Z,14.37
2023-04-22T11:35:44.078Z,14.33
2023-04-22T11:40:46.850Z,14.30
2023-04-22T11:45:48.873Z,14.34
2023-04-22T11:51:07.747Z,14.48
2023-04-22T11:56:09.414Z,14.64
2023-04-22T12:01:13.708Z,14.62
2023-04-22T12:06:16.540Z,14.68
2023-04-22T12:11:18.071Z,14.72
2023-04-22T12:16:20.496Z,14.67
2023-04-22T12:21:24.634Z,14.60
2023-04-22T12:26:27.611Z,14.35
2023-04-22T12:31:29.476Z,14.01
2023-04-22T12:36:32.501Z,13.74
2023-04-22T12:41:34.030Z,13.45
2023-04-22T12:46:36.336Z,13.11
2023-04-22T12:51:37.859Z,12.67
2023-04-22T12:56:39.329Z,12.42
2023-04-22T13:01:42.591Z,12.15
2023-04-22T13:06:44.418Z,12.12
2023-04-22T13:11:49.162Z,11.95
2023-04-22T13:16:51.952Z,11.73
2023-04-22T13:21:53.454Z,11.42
2023-04-22T13:26:54.957Z,11.20
2023-04-22T13:31:56.575Z,11.11
2023-04-22T13:36:58.365Z,10.86
2023-04-22T13:42:00.306Z,10.81
2023-04-22T13:47:02.835Z,10.81
2023-04-22T13:52:04.455Z,10.75
2023-04-22T13:57:05.996Z,10.75
2023-04-22T14:02:07.911Z,10.69
2023-04-22T14:07:09.438Z,10.66
2023-04-22T14:12:11.844Z,10.76
2023-04-22T14:17:13.509Z,10.89
2023-04-22T14:22:15.046Z,10.90
2023-04-22T14:27:16.515Z,10.88
2023-04-22T14:32:19.335Z,10.70
2023-04-22T14:37:21.894Z,10.78
2023-04-22T14:42:25.469Z,10.68
2023-04-22T14:47:27.034Z,10.62
2023-04-22T14:52:28.614Z,10.47
2023-04-22T14:57:30.412Z,10.36
2023-04-22T15:02:33.156Z,10.14
2023-04-22T15:07:34.735Z,10.12
2023-04-22T15:12:36.448Z,10.02
2023-04-22T15:17:37.983Z,10.11
2023-04-22T15:22:42.809Z,10.05
2023-04-22T15:27:44.343Z,9.95
2023-04-22T15:32:45.826Z,9.83
2023-04-22T15:37:47.450Z,9.81
2023-04-22T15:42:48.984Z,9.59
2023-04-22T15:47:52.295Z,9.58
2023-04-22T15:52:54.323Z,9.69
2023-04-22T15:57:55.916Z,9.58
2023-04-22T16:02:58.262Z,9.40
2023-04-22T16:07:59.915Z,9.39
2023-04-22T16:13:01.434Z,9.16
2023-04-22T16:18:04.700Z,9.14
2023-04-22T16:23:06.364Z,9.29
2023-04-22T16:28:10.375Z,9.39
2023-04-22T16:33:14.471Z,9.45
2023-04-22T16:38:16.556Z,9.31
2023-04-22T16:43:18.106Z,9.38
2023-04-22T16:48:19.632Z,9.32
2023-04-22T16:53:21.194Z,9.40
2023-04-22T16:58:22.876Z,9.40
2023-04-22T17:03:25.282Z,9.45
2023-04-22T17:08:26.860Z,9.51
2023-04-22T17:13:29.426Z,9.60
2023-04-22T17:18:31.048Z,9.69
2023-04-22T17:23:32.536Z,9.69
2023-04-22T17:28:34.267Z,9.64
2023-04-22T17:33:36.750Z,9.57
2023-04-22T17:38:38.306Z,9.55
2023-04-22T17:43:40.499Z,9.56
2023-04-22T17:48:42.370Z,9.52
2023-04-22T17:53:43.924Z,9.58
2023-04-22T17:58:45.594Z,9.57
2023-04-22T18:03:47.485Z,9.53
2023-04-22T18:08:49.279Z,9.63
2023-04-22T18:13:50.805Z,9.57
2023-04-22T18:18:52.336Z,9.49
2023-04-22T18:23:54.132Z,9.36
2023-04-22T18:28:55.744Z,9.26
2023-04-22T18:33:57.285Z,9.15
2023-04-22T18:38:58.802Z,9.08
2023-04-22T18:44:00.406Z,9.05
2023-04-22T18:49:01.947Z,9.04
2023-04-22T18:54:03.648Z,8.93
2023-04-22T18:59:05.624Z,8.86
2023-04-22T19:04:08.014Z,8.78
2023-04-22T19:09:09.684Z,8.68
2023-04-22T19:14:13.615Z,8.63
2023-04-22T19:19:15.126Z,8.52
2023-04-22T19:24:16.705Z,8.39
2023-04-22T19:29:18.304Z,8.31
2023-04-22T19:34:19.795Z,8.22
2023-04-22T19:39:21.477Z,8.15
2023-04-22T19:44:23.171Z,8.08
2023-04-22T19:49:24.833Z,7.97
2023-04-22T19:54:28.182Z,7.98
2023-04-22T19:59:31.589Z,7.97
2023-04-22T20:04:33.706Z,7.91
2023-04-22T20:09:36.385Z,7.87
2023-04-22T20:14:39.092Z,7.85
2023-04-22T20:19:40.843Z,7.79
2023-04-22T20:24:43.981Z,7.72
2023-04-22T20:29:46.589Z,7.64
2023-04-22T20:34:48.357Z,7.62
2023-04-22T20:39:51.207Z,7.63
2023-04-22T20:44:52.711Z,7.57
2023-04-22T20:49:54.169Z,7.57
2023-04-22T20:54:56.550Z,7.52
2023-04-22T20:59:58.275Z,7.46
2023-04-22T21:05:00.514Z,7.38
2023-04-22T21:10:02.287Z,7.38
2023-04-22T21:15:04.188Z,7.36
2023-04-22T21:20:06.862Z,7.32
2023-04-22T21:25:09.148Z,7.32
2023-04-22T21:30:11.496Z,7.30
2023-04-22T21:35:13.050Z,7.30
2023-04-22T21:40:14.715Z,7.28
2023-04-22T21:45:17.345Z,7.26
2023-04-22T21:50:20.755Z,7.20
2023-04-22T21:55:22.530Z,7.17
2023-04-22T22:00:24.977Z,7.19
2023-04-22T22:05:26.479Z,7.15
2023-04-22T22:10:28.072Z,7.08
2023-04-22T22:15:29.677Z,7.01
2023-04-22T22:20:31.715Z,7.00
2023-04-22T22:25:33.288Z,6.98
2023-04-22T22:30:34.763Z,6.97
2023-04-22T22:35:36.329Z,6.93
2023-04-22T22:40:37.837Z,6.92
2023-04-22T22:45:39.832Z,6.89
2023-04-22T22:50:41.425Z,6.93
2023-04-22T22:55:42.971Z,6.94
2023-04-22T23:00:44.599Z,6.96
2023-04-22T23:05:46.091Z,7.03
2023-04-22T23:10:47.605Z,7.10
2023-04-22T23:15:49.117Z,7.24
2023-04-22T23:20:51.833Z,7.35
2023-04-22T23:25:53.606Z,7.47
2023-04-22T23:30:56.216Z,7.58
2023-04-22T23:36:00.022Z,7.64
2023-04-22T23:41:01.485Z,7.69
2023-04-22T23:46:03.040Z,7.76
2023-04-22T23:51:04.671Z,7.81
2023-04-22T23:56:06.638Z,7.83
